sensor_id;sensor_type;location;lat;lon;timestamp;P1;durP1;ratioP1;P2;durP2;ratioP2
8819;SDS011;4446;50.876;4.736;2023-02-04T00:00:04;18.38;;;12.40;;
8819;SDS011;4446;50.876;4.736;2023-02-04T00:02:32;18.25;;;13.30;;
8819;SDS011;4446;50.876;4.736;2023-02-04T00:05:01;22.75;;;13.52;;
8819;SDS011;4446;50.876;4.736;2023-02-04T00:07:27;19.13;;;13.18;;
8819;SDS011;4446;50.876;4.736;2023-02-04T00:09:54;20.35;;;13.15;;
8819;SDS011;4446;50.876;4.736;2023-02-04T00:12:21;17.58;;;12.50;;
8819;SDS011;4446;50.876;4.736;2023-02-04T00:14:48;22.05;;;14.15;;
8819;SDS011;4446;50.876;4.736;2023-02-04T00:17:15;22.42;;;14.55;;
8819;SDS011;4446;50.876;4.736;2023-02-04T00:19:42;16.45;;;13.95;;
8819;SDS011;4446;50.876;4.736;2023-02-04T00:22:10;18.75;;;13.45;;
8819;SDS011;4446;50.876;4.736;2023-02-04T00:24:37;23.30;;;14.48;;
8819;SDS011;4446;50.876;4.736;2023-02-04T00:27:04;19.83;;;13.80;;
8819;SDS011;4446;50.876;4.736;2023-02-04T00:29:32;17.65;;;13.68;;
8819;SDS011;4446;50.876;4.736;2023-02-04T00:31:58;19.65;;;14.30;;
8819;SDS011;4446;50.876;4.736;2023-02-04T00:34:25;18.45;;;14.15;;
8819;SDS011;4446;50.876;4.736;2023-02-04T00:36:52;19.70;;;15.10;;
8819;SDS011;4446;50.876;4.736;2023-02-04T00:39:21;21.88;;;15.27;;
8819;SDS011;4446;50.876;4.736;2023-02-04T00:41:48;19.35;;;14.75;;
8819;SDS011;4446;50.876;4.736;2023-02-04T00:44:15;20.10;;;14.57;;
8819;SDS011;4446;50.876;4.736;2023-02-04T00:46:42;20.63;;;14.85;;
8819;SDS011;4446;50.876;4.736;2023-02-04T00:49:09;19.08;;;14.68;;
8819;SDS011;4446;50.876;4.736;2023-02-04T00:51:37;21.23;;;14.45;;
8819;SDS011;4446;50.876;4.736;2023-02-04T00:54:04;22.58;;;15.00;;
8819;SDS011;4446;50.876;4.736;2023-02-04T00:56:33;20.38;;;15.10;;
8819;SDS011;4446;50.876;4.736;2023-02-04T00:59:00;23.02;;;15.45;;
8819;SDS011;4446;50.876;4.736;2023-02-04T01:01:27;25.02;;;15.60;;
8819;SDS011;4446;50.876;4.736;2023-02-04T01:03:55;22.33;;;16.05;;
8819;SDS011;4446;50.876;4.736;2023-02-04T01:06:21;24.95;;;15.93;;
8819;SDS011;4446;50.876;4.736;2023-02-04T01:08:49;23.23;;;15.48;;
8819;SDS011;4446;50.876;4.736;2023-02-04T01:11:16;24.85;;;14.98;;
8819;SDS011;4446;50.876;4.736;2023-02-04T01:13:45;22.30;;;15.05;;
8819;SDS011;4446;50.876;4.736;2023-02-04T01:16:11;23.30;;;16.45;;
8819;SDS011;4446;50.876;4.736;2023-02-04T01:18:38;23.15;;;15.80;;
8819;SDS011;4446;50.876;4.736;2023-02-04T01:21:05;25.30;;;15.65;;
8819;SDS011;4446;50.876;4.736;2023-02-04T01:23:32;24.50;;;16.90;;
8819;SDS011;4446;50.876;4.736;2023-02-04T01:25:59;26.83;;;17.60;;
8819;SDS011;4446;50.876;4.736;2023-02-04T01:28:26;25.70;;;17.35;;
8819;SDS011;4446;50.876;4.736;2023-02-04T01:30:55;29.15;;;18.25;;
8819;SDS011;4446;50.876;4.736;2023-02-04T01:33:22;25.05;;;17.98;;
8819;SDS011;4446;50.876;4.736;2023-02-04T01:35:49;26.92;;;18.17;;
8819;SDS011;4446;50.876;4.736;2023-02-04T01:38:15;24.13;;;17.65;;
8819;SDS011;4446;50.876;4.736;2023-02-04T01:40:42;27.70;;;18.48;;
8819;SDS011;4446;50.876;4.736;2023-02-04T01:43:09;20.25;;;14.50;;
8819;SDS011;4446;50.876;4.736;2023-02-04T01:45:37;23.58;;;16.17;;
8819;SDS011;4446;50.876;4.736;2023-02-04T01:48:06;20.80;;;14.38;;
8819;SDS011;4446;50.876;4.736;2023-02-04T01:50:33;20.30;;;14.10;;
8819;SDS011;4446;50.876;4.736;2023-02-04T01:53:00;20.45;;;13.55;;
8819;SDS011;4446;50.876;4.736;2023-02-04T01:55:28;21.83;;;13.77;;
8819;SDS011;4446;50.876;4.736;2023-02-04T01:57:57;21.67;;;13.07;;
8819;SDS011;4446;50.876;4.736;2023-02-04T02:00:25;18.23;;;11.55;;
8819;SDS011;4446;50.876;4.736;2023-02-04T02:02:54;16.98;;;10.43;;
8819;SDS011;4446;50.876;4.736;2023-02-04T02:05:23;14.40;;;9.60;;
8819;SDS011;4446;50.876;4.736;2023-02-04T02:07:53;13.80;;;8.20;;
8819;SDS011;4446;50.876;4.736;2023-02-04T02:10:22;14.60;;;8.05;;
8819;SDS011;4446;50.876;4.736;2023-02-04T02:12:49;12.60;;;7.85;;
8819;SDS011;4446;50.876;4.736;2023-02-04T02:15:17;10.25;;;7.15;;
8819;SDS011;4446;50.876;4.736;2023-02-04T02:17:44;11.23;;;7.07;;
8819;SDS011;4446;50.876;4.736;2023-02-04T02:20:13;9.77;;;6.07;;
8819;SDS011;4446;50.876;4.736;2023-02-04T02:22:46;9.82;;;6.03;;
8819;SDS011;4446;50.876;4.736;2023-02-04T02:25:22;8.55;;;5.20;;
8819;SDS011;4446;50.876;4.736;2023-02-04T02:27:49;13.13;;;5.78;;
8819;SDS011;4446;50.876;4.736;2023-02-04T02:30:16;10.10;;;5.10;;
8819;SDS011;4446;50.876;4.736;2023-02-04T02:32:44;8.25;;;5.35;;
8819;SDS011;4446;50.876;4.736;2023-02-04T02:35:12;9.25;;;5.90;;
8819;SDS011;4446;50.876;4.736;2023-02-04T02:37:40;10.73;;;5.63;;
8819;SDS011;4446;50.876;4.736;2023-02-04T02:40:07;8.70;;;5.05;;
8819;SDS011;4446;50.876;4.736;2023-02-04T02:42:37;11.00;;;4.95;;
8819;SDS011;4446;50.876;4.736;2023-02-04T02:45:06;10.02;;;4.80;;
8819;SDS011;4446;50.876;4.736;2023-02-04T02:47:37;11.07;;;5.57;;
8819;SDS011;4446;50.876;4.736;2023-02-04T02:50:04;11.65;;;6.10;;
8819;SDS011;4446;50.876;4.736;2023-02-04T02:52:32;12.77;;;5.93;;
8819;SDS011;4446;50.876;4.736;2023-02-04T02:54:59;10.55;;;5.70;;
8819;SDS011;4446;50.876;4.736;2023-02-04T02:57:26;9.65;;;4.80;;
8819;SDS011;4446;50.876;4.736;2023-02-04T02:59:54;7.43;;;4.45;;
8819;SDS011;4446;50.876;4.736;2023-02-04T03:02:21;12.27;;;5.90;;
8819;SDS011;4446;50.876;4.736;2023-02-04T03:04:50;12.10;;;4.90;;
8819;SDS011;4446;50.876;4.736;2023-02-04T03:07:20;10.15;;;5.05;;
8819;SDS011;4446;50.876;4.736;2023-02-04T03:09:48;9.52;;;4.70;;
8819;SDS011;4446;50.876;4.736;2023-02-04T03:12:17;9.82;;;5.25;;
8819;SDS011;4446;50.876;4.736;2023-02-04T03:14:45;9.68;;;4.55;;
8819;SDS011;4446;50.876;4.736;2023-02-04T03:17:13;7.13;;;4.50;;
8819;SDS011;4446;50.876;4.736;2023-02-04T03:19:40;9.32;;;5.13;;
8819;SDS011;4446;50.876;4.736;2023-02-04T03:22:08;10.05;;;4.88;;
8819;SDS011;4446;50.876;4.736;2023-02-04T03:24:36;7.57;;;4.15;;
8819;SDS011;4446;50.876;4.736;2023-02-04T03:27:03;7.55;;;4.40;;
8819;SDS011;4446;50.876;4.736;2023-02-04T03:29:30;7.40;;;4.80;;
8819;SDS011;4446;50.876;4.736;2023-02-04T03:31:57;9.05;;;4.68;;
8819;SDS011;4446;50.876;4.736;2023-02-04T03:34:26;5.82;;;4.40;;
8819;SDS011;4446;50.876;4.736;2023-02-04T03:36:53;10.05;;;4.95;;
8819;SDS011;4446;50.876;4.736;2023-02-04T03:39:20;6.03;;;3.92;;
8819;SDS011;4446;50.876;4.736;2023-02-04T03:41:47;8.20;;;4.32;;
8819;SDS011;4446;50.876;4.736;2023-02-04T03:44:14;8.65;;;4.93;;
8819;SDS011;4446;50.876;4.736;2023-02-04T03:46:41;10.35;;;5.07;;
8819;SDS011;4446;50.876;4.736;2023-02-04T03:49:07;6.53;;;4.50;;
8819;SDS011;4446;50.876;4.736;2023-02-04T03:51:36;8.70;;;4.70;;
8819;SDS011;4446;50.876;4.736;2023-02-04T03:54:03;7.50;;;4.40;;
8819;SDS011;4446;50.876;4.736;2023-02-04T03:56:30;8.30;;;4.47;;
8819;SDS011;4446;50.876;4.736;2023-02-04T03:58:56;7.88;;;4.32;;
8819;SDS011;4446;50.876;4.736;2023-02-04T04:01:23;8.93;;;4.22;;
8819;SDS011;4446;50.876;4.736;2023-02-04T04:03:50;5.95;;;4.35;;
8819;SDS011;4446;50.876;4.736;2023-02-04T04:06:17;7.00;;;4.18;;
8819;SDS011;4446;50.876;4.736;2023-02-04T04:08:45;7.22;;;4.13;;
8819;SDS011;4446;50.876;4.736;2023-02-04T04:11:12;9.27;;;4.72;;
8819;SDS011;4446;50.876;4.736;2023-02-04T04:13:39;5.88;;;3.97;;
8819;SDS011;4446;50.876;4.736;2023-02-04T04:16:06;7.47;;;4.38;;
8819;SDS011;4446;50.876;4.736;2023-02-04T04:18:34;10.98;;;4.45;;
8819;SDS011;4446;50.876;4.736;2023-02-04T04:21:01;11.27;;;5.55;;
8819;SDS011;4446;50.876;4.736;2023-02-04T04:23:28;6.75;;;4.32;;
8819;SDS011;4446;50.876;4.736;2023-02-04T04:25:56;7.30;;;4.63;;
8819;SDS011;4446;50.876;4.736;2023-02-04T04:28:23;8.38;;;4.95;;
8819;SDS011;4446;50.876;4.736;2023-02-04T04:30:50;8.25;;;4.40;;
8819;SDS011;4446;50.876;4.736;2023-02-04T04:33:17;8.38;;;5.20;;
8819;SDS011;4446;50.876;4.736;2023-02-04T04:35:44;10.13;;;5.40;;
8819;SDS011;4446;50.876;4.736;2023-02-04T04:38:11;11.95;;;5.65;;
8819;SDS011;4446;50.876;4.736;2023-02-04T04:40:38;12.00;;;5.70;;
8819;SDS011;4446;50.876;4.736;2023-02-04T04:43:06;13.15;;;6.28;;
8819;SDS011;4446;50.876;4.736;2023-02-04T04:45:33;13.73;;;7.00;;
8819;SDS011;4446;50.876;4.736;2023-02-04T04:48:00;15.38;;;7.43;;
8819;SDS011;4446;50.876;4.736;2023-02-04T04:50:27;16.02;;;7.57;;
8819;SDS011;4446;50.876;4.736;2023-02-04T04:52:54;16.23;;;7.78;;
8819;SDS011;4446;50.876;4.736;2023-02-04T04:55:21;14.07;;;7.80;;
8819;SDS011;4446;50.876;4.736;2023-02-04T04:57:47;19.38;;;8.15;;
8819;SDS011;4446;50.876;4.736;2023-02-04T05:00:18;19.15;;;9.82;;
8819;SDS011;4446;50.876;4.736;2023-02-04T05:02:46;14.40;;;8.15;;
8819;SDS011;4446;50.876;4.736;2023-02-04T05:05:13;20.67;;;8.80;;
8819;SDS011;4446;50.876;4.736;2023-02-04T05:07:41;14.57;;;8.25;;
8819;SDS011;4446;50.876;4.736;2023-02-04T05:10:08;18.55;;;8.73;;
8819;SDS011;4446;50.876;4.736;2023-02-04T05:12:35;15.80;;;8.75;;
8819;SDS011;4446;50.876;4.736;2023-02-04T05:15:02;14.50;;;7.85;;
8819;SDS011;4446;50.876;4.736;2023-02-04T05:17:31;18.40;;;8.35;;
8819;SDS011;4446;50.876;4.736;2023-02-04T05:19:58;15.48;;;7.97;;
8819;SDS011;4446;50.876;4.736;2023-02-04T05:22:25;14.90;;;8.35;;
8819;SDS011;4446;50.876;4.736;2023-02-04T05:24:52;15.93;;;8.98;;
8819;SDS011;4446;50.876;4.736;2023-02-04T05:27:19;17.40;;;8.77;;
8819;SDS011;4446;50.876;4.736;2023-02-04T05:29:46;16.08;;;8.68;;
8819;SDS011;4446;50.876;4.736;2023-02-04T05:32:12;17.77;;;9.23;;
8819;SDS011;4446;50.876;4.736;2023-02-04T05:34:41;16.83;;;8.77;;
8819;SDS011;4446;50.876;4.736;2023-02-04T05:37:08;14.27;;;8.05;;
8819;SDS011;4446;50.876;4.736;2023-02-04T05:39:35;16.45;;;8.60;;
8819;SDS011;4446;50.876;4.736;2023-02-04T05:42:02;17.40;;;9.20;;
8819;SDS011;4446;50.876;4.736;2023-02-04T05:44:28;19.98;;;9.40;;
8819;SDS011;4446;50.876;4.736;2023-02-04T05:46:57;16.60;;;8.60;;
8819;SDS011;4446;50.876;4.736;2023-02-04T05:49:23;15.30;;;8.57;;
8819;SDS011;4446;50.876;4.736;2023-02-04T05:51:52;17.50;;;9.10;;
8819;SDS011;4446;50.876;4.736;2023-02-04T05:54:19;17.30;;;8.82;;
8819;SDS011;4446;50.876;4.736;2023-02-04T05:56:45;18.10;;;9.48;;
8819;SDS011;4446;50.876;4.736;2023-02-04T05:59:12;17.25;;;9.32;;
8819;SDS011;4446;50.876;4.736;2023-02-04T06:01:39;18.13;;;9.68;;
8819;SDS011;4446;50.876;4.736;2023-02-04T06:04:06;19.60;;;10.20;;
8819;SDS011;4446;50.876;4.736;2023-02-04T06:06:33;18.25;;;10.23;;
8819;SDS011;4446;50.876;4.736;2023-02-04T06:09:02;22.05;;;10.63;;
8819;SDS011;4446;50.876;4.736;2023-02-04T06:11:29;21.00;;;10.20;;
8819;SDS011;4446;50.876;4.736;2023-02-04T06:13:55;18.58;;;9.88;;
8819;SDS011;4446;50.876;4.736;2023-02-04T06:16:23;20.02;;;9.85;;
8819;SDS011;4446;50.876;4.736;2023-02-04T06:18:49;20.63;;;9.98;;
8819;SDS011;4446;50.876;4.736;2023-02-04T06:21:16;19.95;;;9.40;;
8819;SDS011;4446;50.876;4.736;2023-02-04T06:23:43;21.17;;;10.98;;
8819;SDS011;4446;50.876;4.736;2023-02-04T06:26:12;19.23;;;9.43;;
8819;SDS011;4446;50.876;4.736;2023-02-04T06:28:39;15.20;;;7.60;;
8819;SDS011;4446;50.876;4.736;2023-02-04T06:31:05;16.05;;;8.85;;
8819;SDS011;4446;50.876;4.736;2023-02-04T06:33:33;21.73;;;9.52;;
8819;SDS011;4446;50.876;4.736;2023-02-04T06:36:00;19.27;;;9.90;;
8819;SDS011;4446;50.876;4.736;2023-02-04T06:38:27;20.88;;;9.85;;
8819;SDS011;4446;50.876;4.736;2023-02-04T06:40:54;21.67;;;10.43;;
8819;SDS011;4446;50.876;4.736;2023-02-04T06:43:23;19.75;;;9.70;;
8819;SDS011;4446;50.876;4.736;2023-02-04T06:45:51;21.20;;;9.90;;
8819;SDS011;4446;50.876;4.736;2023-02-04T06:48:18;18.40;;;9.30;;
8819;SDS011;4446;50.876;4.736;2023-02-04T06:50:45;24.83;;;11.23;;
8819;SDS011;4446;50.876;4.736;2023-02-04T06:53:12;22.98;;;10.57;;
8819;SDS011;4446;50.876;4.736;2023-02-04T06:55:39;28.67;;;12.15;;
8819;SDS011;4446;50.876;4.736;2023-02-04T06:58:06;29.58;;;12.80;;
8819;SDS011;4446;50.876;4.736;2023-02-04T07:00:35;27.63;;;12.65;;
8819;SDS011;4446;50.876;4.736;2023-02-04T07:03:02;34.63;;;14.32;;
8819;SDS011;4446;50.876;4.736;2023-02-04T07:05:29;27.05;;;13.25;;
8819;SDS011;4446;50.876;4.736;2023-02-04T07:07:56;32.20;;;13.93;;
8819;SDS011;4446;50.876;4.736;2023-02-04T07:10:23;30.38;;;13.60;;
8819;SDS011;4446;50.876;4.736;2023-02-04T07:12:50;27.23;;;12.68;;
8819;SDS011;4446;50.876;4.736;2023-02-04T07:15:16;24.58;;;11.57;;
8819;SDS011;4446;50.876;4.736;2023-02-04T07:17:45;26.45;;;12.07;;
8819;SDS011;4446;50.876;4.736;2023-02-04T07:20:12;32.22;;;13.63;;
8819;SDS011;4446;50.876;4.736;2023-02-04T07:22:38;30.17;;;13.77;;
8819;SDS011;4446;50.876;4.736;2023-02-04T07:25:06;34.10;;;14.30;;
8819;SDS011;4446;50.876;4.736;2023-02-04T07:27:34;35.05;;;13.43;;
8819;SDS011;4446;50.876;4.736;2023-02-04T07:30:01;27.92;;;12.55;;
8819;SDS011;4446;50.876;4.736;2023-02-04T07:32:28;26.70;;;12.02;;
8819;SDS011;4446;50.876;4.736;2023-02-04T07:34:59;26.77;;;11.90;;
8819;SDS011;4446;50.876;4.736;2023-02-04T07:37:27;27.90;;;12.23;;
8819;SDS011;4446;50.876;4.736;2023-02-04T07:39:54;32.03;;;13.00;;
8819;SDS011;4446;50.876;4.736;2023-02-04T07:42:21;30.17;;;11.95;;
8819;SDS011;4446;50.876;4.736;2023-02-04T07:44:48;38.78;;;14.80;;
8819;SDS011;4446;50.876;4.736;2023-02-04T07:47:15;30.00;;;13.48;;
8819;SDS011;4446;50.876;4.736;2023-02-04T07:49:42;36.40;;;13.65;;
8819;SDS011;4446;50.876;4.736;2023-02-04T07:52:10;40.45;;;15.35;;
8819;SDS011;4446;50.876;4.736;2023-02-04T07:54:37;32.75;;;13.38;;
8819;SDS011;4446;50.876;4.736;2023-02-04T07:57:04;31.40;;;12.63;;
8819;SDS011;4446;50.876;4.736;2023-02-04T07:59:31;31.38;;;12.40;;
8819;SDS011;4446;50.876;4.736;2023-02-04T08:01:58;34.05;;;13.15;;
8819;SDS011;4446;50.876;4.736;2023-02-04T08:04:26;33.22;;;13.13;;
8819;SDS011;4446;50.876;4.736;2023-02-04T08:06:53;26.77;;;12.00;;
8819;SDS011;4446;50.876;4.736;2023-02-04T08:09:21;29.15;;;12.90;;
8819;SDS011;4446;50.876;4.736;2023-02-04T08:11:51;33.03;;;12.95;;
8819;SDS011;4446;50.876;4.736;2023-02-04T08:14:18;38.88;;;14.15;;
8819;SDS011;4446;50.876;4.736;2023-02-04T08:16:45;31.83;;;12.85;;
8819;SDS011;4446;50.876;4.736;2023-02-04T08:19:12;28.95;;;12.25;;
8819;SDS011;4446;50.876;4.736;2023-02-04T08:21:42;33.45;;;13.05;;
8819;SDS011;4446;50.876;4.736;2023-02-04T08:24:10;33.15;;;13.05;;
8819;SDS011;4446;50.876;4.736;2023-02-04T08:26:39;35.80;;;13.52;;
8819;SDS011;4446;50.876;4.736;2023-02-04T08:29:07;34.05;;;13.40;;
8819;SDS011;4446;50.876;4.736;2023-02-04T08:31:35;30.75;;;11.82;;
8819;SDS011;4446;50.876;4.736;2023-02-04T08:34:02;25.85;;;11.70;;
8819;SDS011;4446;50.876;4.736;2023-02-04T08:36:30;27.08;;;11.63;;
8819;SDS011;4446;50.876;4.736;2023-02-04T08:38:57;32.78;;;13.80;;
8819;SDS011;4446;50.876;4.736;2023-02-04T08:41:24;34.33;;;12.75;;
8819;SDS011;4446;50.876;4.736;2023-02-04T08:43:52;33.00;;;13.35;;
8819;SDS011;4446;50.876;4.736;2023-02-04T08:46:19;33.25;;;13.93;;
8819;SDS011;4446;50.876;4.736;2023-02-04T08:48:46;39.10;;;15.35;;
8819;SDS011;4446;50.876;4.736;2023-02-04T08:51:13;33.05;;;14.18;;
8819;SDS011;4446;50.876;4.736;2023-02-04T08:53:41;31.10;;;13.93;;
8819;SDS011;4446;50.876;4.736;2023-02-04T08:56:08;34.88;;;14.23;;
8819;SDS011;4446;50.876;4.736;2023-02-04T08:58:39;35.65;;;15.05;;
8819;SDS011;4446;50.876;4.736;2023-02-04T09:01:08;28.08;;;12.32;;
8819;SDS011;4446;50.876;4.736;2023-02-04T09:03:35;30.45;;;13.77;;
8819;SDS011;4446;50.876;4.736;2023-02-04T09:06:02;33.55;;;14.73;;
8819;SDS011;4446;50.876;4.736;2023-02-04T09:08:29;32.90;;;14.55;;
8819;SDS011;4446;50.876;4.736;2023-02-04T09:10:57;31.33;;;13.02;;
8819;SDS011;4446;50.876;4.736;2023-02-04T09:13:23;28.85;;;13.95;;
8819;SDS011;4446;50.876;4.736;2023-02-04T09:15:50;35.92;;;14.07;;
8819;SDS011;4446;50.876;4.736;2023-02-04T09:18:19;29.13;;;12.50;;
8819;SDS011;4446;50.876;4.736;2023-02-04T09:20:47;27.73;;;12.07;;
8819;SDS011;4446;50.876;4.736;2023-02-04T09:23:15;30.45;;;12.13;;
8819;SDS011;4446;50.876;4.736;2023-02-04T09:25:42;31.70;;;13.18;;
8819;SDS011;4446;50.876;4.736;2023-02-04T09:28:10;29.92;;;12.85;;
8819;SDS011;4446;50.876;4.736;2023-02-04T09:30:38;31.83;;;13.73;;
8819;SDS011;4446;50.876;4.736;2023-02-04T09:33:06;25.02;;;11.45;;
8819;SDS011;4446;50.876;4.736;2023-02-04T09:35:36;21.58;;;11.07;;
8819;SDS011;4446;50.876;4.736;2023-02-04T09:38:03;28.13;;;13.25;;
8819;SDS011;4446;50.876;4.736;2023-02-04T09:40:30;37.10;;;15.23;;
8819;SDS011;4446;50.876;4.736;2023-02-04T09:43:00;30.55;;;14.38;;
8819;SDS011;4446;50.876;4.736;2023-02-04T09:45:28;29.13;;;13.88;;
8819;SDS011;4446;50.876;4.736;2023-02-04T09:47:58;25.20;;;12.77;;
8819;SDS011;4446;50.876;4.736;2023-02-04T09:50:28;27.35;;;12.05;;
8819;SDS011;4446;50.876;4.736;2023-02-04T09:52:59;31.10;;;15.05;;
8819;SDS011;4446;50.876;4.736;2023-02-04T09:55:29;32.70;;;13.70;;
8819;SDS011;4446;50.876;4.736;2023-02-04T09:57:58;39.17;;;14.52;;
8819;SDS011;4446;50.876;4.736;2023-02-04T10:00:26;33.03;;;13.13;;
8819;SDS011;4446;50.876;4.736;2023-02-04T10:02:55;27.15;;;12.18;;
8819;SDS011;4446;50.876;4.736;2023-02-04T10:05:26;31.30;;;13.23;;
8819;SDS011;4446;50.876;4.736;2023-02-04T10:07:55;42.17;;;13.68;;
8819;SDS011;4446;50.876;4.736;2023-02-04T10:10:24;30.00;;;13.57;;
8819;SDS011;4446;50.876;4.736;2023-02-04T10:12:54;30.67;;;13.65;;
8819;SDS011;4446;50.876;4.736;2023-02-04T10:15:25;21.85;;;10.73;;
8819;SDS011;4446;50.876;4.736;2023-02-04T10:17:54;19.67;;;9.50;;
8819;SDS011;4446;50.876;4.736;2023-02-04T10:20:26;17.00;;;7.68;;
8819;SDS011;4446;50.876;4.736;2023-02-04T10:22:53;18.23;;;7.35;;
8819;SDS011;4446;50.876;4.736;2023-02-04T10:25:23;12.80;;;6.47;;
8819;SDS011;4446;50.876;4.736;2023-02-04T10:27:52;14.73;;;6.68;;
8819;SDS011;4446;50.876;4.736;2023-02-04T10:30:21;17.80;;;8.50;;
8819;SDS011;4446;50.876;4.736;2023-02-04T10:32:49;16.73;;;8.85;;
8819;SDS011;4446;50.876;4.736;2023-02-04T10:35:18;22.13;;;9.70;;
8819;SDS011;4446;50.876;4.736;2023-02-04T10:37:47;18.98;;;8.48;;
8819;SDS011;4446;50.876;4.736;2023-02-04T10:40:29;21.08;;;9.52;;
8819;SDS011;4446;50.876;4.736;2023-02-04T10:42:57;24.00;;;12.02;;
8819;SDS011;4446;50.876;4.736;2023-02-04T10:45:25;24.30;;;10.93;;
8819;SDS011;4446;50.876;4.736;2023-02-04T10:47:53;21.60;;;10.30;;
8819;SDS011;4446;50.876;4.736;2023-02-04T10:50:23;22.35;;;10.23;;
8819;SDS011;4446;50.876;4.736;2023-02-04T10:52:51;20.70;;;9.80;;
8819;SDS011;4446;50.876;4.736;2023-02-04T10:55:42;24.42;;;12.73;;
8819;SDS011;4446;50.876;4.736;2023-02-04T10:58:10;20.77;;;12.20;;
8819;SDS011;4446;50.876;4.736;2023-02-04T11:00:39;19.98;;;11.90;;
8819;SDS011;4446;50.876;4.736;2023-02-04T11:03:08;20.90;;;12.23;;
8819;SDS011;4446;50.876;4.736;2023-02-04T11:05:37;17.27;;;9.82;;
8819;SDS011;4446;50.876;4.736;2023-02-04T11:08:17;19.13;;;10.48;;
8819;SDS011;4446;50.876;4.736;2023-02-04T11:10:50;17.60;;;11.00;;
8819;SDS011;4446;50.876;4.736;2023-02-04T11:13:22;19.73;;;12.23;;
8819;SDS011;4446;50.876;4.736;2023-02-04T11:16:11;17.60;;;11.02;;
8819;SDS011;4446;50.876;4.736;2023-02-04T11:19:14;19.38;;;11.23;;
8819;SDS011;4446;50.876;4.736;2023-02-04T11:22:03;18.05;;;10.48;;
8819;SDS011;4446;50.876;4.736;2023-02-04T11:24:32;18.73;;;11.77;;
8819;SDS011;4446;50.876;4.736;2023-02-04T11:27:18;20.00;;;11.25;;
8819;SDS011;4446;50.876;4.736;2023-02-04T11:29:47;16.77;;;10.45;;
8819;SDS011;4446;50.876;4.736;2023-02-04T11:35:07;15.95;;;10.40;;
8819;SDS011;4446;50.876;4.736;2023-02-04T11:37:50;15.10;;;9.90;;
8819;SDS011;4446;50.876;4.736;2023-02-04T11:40:21;14.98;;;10.48;;
8819;SDS011;4446;50.876;4.736;2023-02-04T11:42:56;15.98;;;9.63;;
8819;SDS011;4446;50.876;4.736;2023-02-04T11:45:25;13.05;;;9.00;;
8819;SDS011;4446;50.876;4.736;2023-02-04T11:47:55;13.63;;;9.60;;
8819;SDS011;4446;50.876;4.736;2023-02-04T11:50:25;13.40;;;7.68;;
8819;SDS011;4446;50.876;4.736;2023-02-04T11:52:54;7.43;;;6.18;;
8819;SDS011;4446;50.876;4.736;2023-02-04T11:55:22;7.35;;;5.95;;
8819;SDS011;4446;50.876;4.736;2023-02-04T11:57:50;8.30;;;6.50;;
8819;SDS011;4446;50.876;4.736;2023-02-04T12:00:20;7.45;;;6.25;;
8819;SDS011;4446;50.876;4.736;2023-02-04T12:02:49;8.95;;;5.88;;
8819;SDS011;4446;50.876;4.736;2023-02-04T12:05:20;7.05;;;5.05;;
8819;SDS011;4446;50.876;4.736;2023-02-04T12:07:48;6.50;;;5.38;;
8819;SDS011;4446;50.876;4.736;2023-02-04T12:10:22;6.28;;;5.20;;
8819;SDS011;4446;50.876;4.736;2023-02-04T12:12:50;7.70;;;5.85;;
8819;SDS011;4446;50.876;4.736;2023-02-04T12:15:22;5.72;;;5.13;;
8819;SDS011;4446;50.876;4.736;2023-02-04T12:18:00;5.72;;;5.03;;
8819;SDS011;4446;50.876;4.736;2023-02-04T12:20:28;5.65;;;5.00;;
8819;SDS011;4446;50.876;4.736;2023-02-04T12:22:55;4.90;;;4.38;;
8819;SDS011;4446;50.876;4.736;2023-02-04T12:25:22;5.45;;;4.72;;
8819;SDS011;4446;50.876;4.736;2023-02-04T12:27:50;5.88;;;4.50;;
8819;SDS011;4446;50.876;4.736;2023-02-04T12:30:18;4.75;;;4.18;;
8819;SDS011;4446;50.876;4.736;2023-02-04T12:32:47;4.55;;;4.15;;
8819;SDS011;4446;50.876;4.736;2023-02-04T12:35:14;5.10;;;4.43;;
8819;SDS011;4446;50.876;4.736;2023-02-04T12:37:42;5.15;;;4.47;;
8819;SDS011;4446;50.876;4.736;2023-02-04T12:40:09;4.13;;;3.72;;
8819;SDS011;4446;50.876;4.736;2023-02-04T12:42:40;5.90;;;4.25;;
8819;SDS011;4446;50.876;4.736;2023-02-04T12:45:08;5.25;;;4.75;;
8819;SDS011;4446;50.876;4.736;2023-02-04T12:47:37;4.40;;;4.00;;
8819;SDS011;4446;50.876;4.736;2023-02-04T12:50:04;4.10;;;3.70;;
8819;SDS011;4446;50.876;4.736;2023-02-04T12:52:32;4.50;;;3.50;;
8819;SDS011;4446;50.876;4.736;2023-02-04T12:55:01;4.72;;;3.53;;
8819;SDS011;4446;50.876;4.736;2023-02-04T12:57:29;3.38;;;3.08;;
8819;SDS011;4446;50.876;4.736;2023-02-04T12:59:56;4.03;;;3.05;;
8819;SDS011;4446;50.876;4.736;2023-02-04T13:02:24;4.22;;;3.00;;
8819;SDS011;4446;50.876;4.736;2023-02-04T13:04:53;3.40;;;2.90;;
8819;SDS011;4446;50.876;4.736;2023-02-04T13:07:20;3.92;;;3.10;;
8819;SDS011;4446;50.876;4.736;2023-02-04T13:09:48;3.70;;;3.40;;
8819;SDS011;4446;50.876;4.736;2023-02-04T13:12:16;4.10;;;3.70;;
8819;SDS011;4446;50.876;4.736;2023-02-04T13:14:43;3.90;;;3.42;;
8819;SDS011;4446;50.876;4.736;2023-02-04T13:17:10;4.07;;;3.67;;
8819;SDS011;4446;50.876;4.736;2023-02-04T13:19:37;4.07;;;3.67;;
8819;SDS011;4446;50.876;4.736;2023-02-04T13:22:05;5.20;;;4.63;;
8819;SDS011;4446;50.876;4.736;2023-02-04T13:24:32;6.53;;;4.75;;
8819;SDS011;4446;50.876;4.736;2023-02-04T13:26:59;5.63;;;5.13;;
8819;SDS011;4446;50.876;4.736;2023-02-04T13:29:26;6.05;;;5.35;;
8819;SDS011;4446;50.876;4.736;2023-02-04T13:31:53;5.80;;;5.30;;
8819;SDS011;4446;50.876;4.736;2023-02-04T13:34:20;6.57;;;5.63;;
8819;SDS011;4446;50.876;4.736;2023-02-04T13:36:47;7.78;;;6.28;;
8819;SDS011;4446;50.876;4.736;2023-02-04T13:39:15;6.65;;;6.03;;
8819;SDS011;4446;50.876;4.736;2023-02-04T13:41:42;8.05;;;7.25;;
8819;SDS011;4446;50.876;4.736;2023-02-04T13:44:10;8.60;;;6.55;;
8819;SDS011;4446;50.876;4.736;2023-02-04T13:46:37;7.97;;;6.47;;
8819;SDS011;4446;50.876;4.736;2023-02-04T13:49:04;8.20;;;6.30;;
8819;SDS011;4446;50.876;4.736;2023-02-04T13:51:31;8.70;;;6.68;;
8819;SDS011;4446;50.876;4.736;2023-02-04T13:53:58;8.38;;;7.30;;
8819;SDS011;4446;50.876;4.736;2023-02-04T13:56:26;9.35;;;6.15;;
8819;SDS011;4446;50.876;4.736;2023-02-04T13:58:53;6.53;;;5.57;;
8819;SDS011;4446;50.876;4.736;2023-02-04T14:01:20;7.85;;;6.43;;
8819;SDS011;4446;50.876;4.736;2023-02-04T14:03:48;9.27;;;6.43;;
8819;SDS011;4446;50.876;4.736;2023-02-04T14:06:15;6.68;;;5.78;;
8819;SDS011;4446;50.876;4.736;2023-02-04T14:08:44;7.45;;;6.10;;
8819;SDS011;4446;50.876;4.736;2023-02-04T14:11:11;8.80;;;7.47;;
8819;SDS011;4446;50.876;4.736;2023-02-04T14:13:40;9.13;;;6.70;;
8819;SDS011;4446;50.876;4.736;2023-02-04T14:16:07;8.32;;;6.55;;
8819;SDS011;4446;50.876;4.736;2023-02-04T14:18:34;10.63;;;6.40;;
8819;SDS011;4446;50.876;4.736;2023-02-04T14:21:01;7.68;;;6.63;;
8819;SDS011;4446;50.876;4.736;2023-02-04T14:23:28;9.45;;;6.43;;
8819;SDS011;4446;50.876;4.736;2023-02-04T14:25:56;8.82;;;6.45;;
8819;SDS011;4446;50.876;4.736;2023-02-04T14:28:24;8.98;;;6.32;;
8819;SDS011;4446;50.876;4.736;2023-02-04T14:30:52;8.05;;;6.03;;
8819;SDS011;4446;50.876;4.736;2023-02-04T14:33:19;9.70;;;7.10;;
8819;SDS011;4446;50.876;4.736;2023-02-04T14:35:46;9.20;;;7.13;;
8819;SDS011;4446;50.876;4.736;2023-02-04T14:38:13;10.52;;;7.50;;
8819;SDS011;4446;50.876;4.736;2023-02-04T14:40:42;8.75;;;6.68;;
8819;SDS011;4446;50.876;4.736;2023-02-04T14:43:09;9.63;;;7.72;;
8819;SDS011;4446;50.876;4.736;2023-02-04T14:45:36;10.52;;;7.32;;
8819;SDS011;4446;50.876;4.736;2023-02-04T14:48:05;10.85;;;7.47;;
8819;SDS011;4446;50.876;4.736;2023-02-04T14:50:33;10.45;;;7.38;;
8819;SDS011;4446;50.876;4.736;2023-02-04T14:53:00;11.38;;;7.95;;
8819;SDS011;4446;50.876;4.736;2023-02-04T14:55:27;10.05;;;7.57;;
8819;SDS011;4446;50.876;4.736;2023-02-04T14:57:54;10.90;;;7.85;;
8819;SDS011;4446;50.876;4.736;2023-02-04T15:00:21;13.10;;;8.32;;
8819;SDS011;4446;50.876;4.736;2023-02-04T15:02:48;12.20;;;8.00;;
8819;SDS011;4446;50.876;4.736;2023-02-04T15:05:17;11.40;;;7.95;;
8819;SDS011;4446;50.876;4.736;2023-02-04T15:07:44;11.52;;;7.70;;